sensor_id;sensor_type;location;lat;lon;timestamp;P1;durP1;ratioP1;P2;durP2;ratioP2
13797;SDS011;6970;51.340;3.240;2023-10-31T00:00:19;9.87;;;8.83;;
13797;SDS011;6970;51.340;3.240;2023-10-31T00:02:46;9.13;;;8.23;;
13797;SDS011;6970;51.340;3.240;2023-10-31T00:05:14;9.00;;;8.30;;
13797;SDS011;6970;51.340;3.240;2023-10-31T00:10:23;10.10;;;9.20;;
13797;SDS011;6970;51.340;3.240;2023-10-31T00:12:50;9.60;;;8.70;;
13797;SDS011;6970;51.340;3.240;2023-10-31T00:15:18;9.70;;;8.90;;
13797;SDS011;6970;51.340;3.240;2023-10-31T00:17:46;8.93;;;8.03;;
13797;SDS011;6970;51.340;3.240;2023-10-31T00:20:14;8.30;;;7.60;;
13797;SDS011;6970;51.340;3.240;2023-10-31T00:22:43;7.30;;;6.80;;
13797;SDS011;6970;51.340;3.240;2023-10-31T00:25:14;7.63;;;6.93;;
13797;SDS011;6970;51.340;3.240;2023-10-31T00:27:44;6.40;;;5.90;;
13797;SDS011;6970;51.340;3.240;2023-10-31T00:30:17;7.60;;;5.87;;
13797;SDS011;6970;51.340;3.240;2023-10-31T00:32:47;5.60;;;4.60;;
13797;SDS011;6970;51.340;3.240;2023-10-31T00:35:14;5.80;;;4.27;;
13797;SDS011;6970;51.340;3.240;2023-10-31T00:37:43;4.10;;;3.70;;
13797;SDS011;6970;51.340;3.240;2023-10-31T00:42:43;5.70;;;4.53;;
13797;SDS011;6970;51.340;3.240;2023-10-31T00:45:13;5.40;;;4.90;;
13797;SDS011;6970;51.340;3.240;2023-10-31T00:47:42;7.33;;;5.67;;
13797;SDS011;6970;51.340;3.240;2023-10-31T00:50:12;5.47;;;4.47;;
13797;SDS011;6970;51.340;3.240;2023-10-31T00:52:42;7.10;;;4.13;;
13797;SDS011;6970;51.340;3.240;2023-10-31T00:57:43;5.77;;;3.50;;
13797;SDS011;6970;51.340;3.240;2023-10-31T01:00:10;5.17;;;3.77;;
13797;SDS011;6970;51.340;3.240;2023-10-31T01:02:40;6.23;;;3.87;;
13797;SDS011;6970;51.340;3.240;2023-10-31T01:05:15;7.60;;;3.57;;
13797;SDS011;6970;51.340;3.240;2023-10-31T01:07:44;4.83;;;3.60;;
13797;SDS011;6970;51.340;3.240;2023-10-31T01:12:43;4.50;;;3.37;;
13797;SDS011;6970;51.340;3.240;2023-10-31T01:15:13;4.70;;;3.70;;
13797;SDS011;6970;51.340;3.240;2023-10-31T01:17:40;5.00;;;3.60;;
13797;SDS011;6970;51.340;3.240;2023-10-31T01:20:07;4.70;;;3.40;;
13797;SDS011;6970;51.340;3.240;2023-10-31T01:22:39;4.53;;;3.30;;
13797;SDS011;6970;51.340;3.240;2023-10-31T01:25:08;7.10;;;4.23;;
13797;SDS011;6970;51.340;3.240;2023-10-31T01:27:38;4.70;;;3.73;;
13797;SDS011;6970;51.340;3.240;2023-10-31T01:30:05;4.40;;;4.00;;
13797;SDS011;6970;51.340;3.240;2023-10-31T01:32:33;4.77;;;4.13;;
13797;SDS011;6970;51.340;3.240;2023-10-31T01:37:30;6.57;;;4.23;;
13797;SDS011;6970;51.340;3.240;2023-10-31T01:39:59;8.87;;;4.40;;
13797;SDS011;6970;51.340;3.240;2023-10-31T01:42:28;4.17;;;3.77;;
13797;SDS011;6970;51.340;3.240;2023-10-31T01:44:57;6.30;;;4.17;;
13797;SDS011;6970;51.340;3.240;2023-10-31T01:47:24;4.33;;;3.93;;
13797;SDS011;6970;51.340;3.240;2023-10-31T01:52:25;7.67;;;4.40;;
13797;SDS011;6970;51.340;3.240;2023-10-31T01:57:26;5.90;;;3.83;;
13797;SDS011;6970;51.340;3.240;2023-10-31T01:59:56;6.30;;;4.10;;
13797;SDS011;6970;51.340;3.240;2023-10-31T02:02:23;4.83;;;4.03;;
13797;SDS011;6970;51.340;3.240;2023-10-31T02:04:56;5.07;;;3.60;;
13797;SDS011;6970;51.340;3.240;2023-10-31T02:07:25;7.13;;;4.33;;
13797;SDS011;6970;51.340;3.240;2023-10-31T02:09:52;4.03;;;2.93;;
13797;SDS011;6970;51.340;3.240;2023-10-31T02:12:35;5.40;;;3.37;;
13797;SDS011;6970;51.340;3.240;2023-10-31T02:17:37;4.10;;;2.63;;
13797;SDS011;6970;51.340;3.240;2023-10-31T02:20:10;7.40;;;3.10;;
13797;SDS011;6970;51.340;3.240;2023-10-31T02:22:39;3.80;;;2.50;;
13797;SDS011;6970;51.340;3.240;2023-10-31T02:25:17;3.10;;;2.20;;
13797;SDS011;6970;51.340;3.240;2023-10-31T02:27:46;3.53;;;2.50;;
13797;SDS011;6970;51.340;3.240;2023-10-31T02:30:19;6.20;;;2.53;;
13797;SDS011;6970;51.340;3.240;2023-10-31T02:32:49;3.07;;;2.33;;
13797;SDS011;6970;51.340;3.240;2023-10-31T02:35:19;2.83;;;2.43;;
13797;SDS011;6970;51.340;3.240;2023-10-31T02:37:47;3.90;;;2.30;;
13797;SDS011;6970;51.340;3.240;2023-10-31T02:40:17;5.00;;;2.80;;
13797;SDS011;6970;51.340;3.240;2023-10-31T02:42:46;4.77;;;2.70;;
13797;SDS011;6970;51.340;3.240;2023-10-31T02:45:17;5.30;;;2.40;;
13797;SDS011;6970;51.340;3.240;2023-10-31T02:47:48;2.60;;;2.10;;
13797;SDS011;6970;51.340;3.240;2023-10-31T02:50:15;3.73;;;2.33;;
13797;SDS011;6970;51.340;3.240;2023-10-31T02:52:44;2.83;;;2.30;;
13797;SDS011;6970;51.340;3.240;2023-10-31T02:55:14;3.80;;;1.97;;
13797;SDS011;6970;51.340;3.240;2023-10-31T02:57:42;2.20;;;1.57;;
13797;SDS011;6970;51.340;3.240;2023-10-31T03:00:12;1.77;;;1.60;;
13797;SDS011;6970;51.340;3.240;2023-10-31T03:02:42;4.70;;;1.40;;
13797;SDS011;6970;51.340;3.240;2023-10-31T03:07:43;3.47;;;1.60;;
13797;SDS011;6970;51.340;3.240;2023-10-31T03:12:42;2.70;;;1.40;;
13797;SDS011;6970;51.340;3.240;2023-10-31T03:15:12;1.77;;;1.33;;
13797;SDS011;6970;51.340;3.240;2023-10-31T03:17:42;1.83;;;1.40;;
13797;SDS011;6970;51.340;3.240;2023-10-31T03:20:09;1.77;;;1.47;;
13797;SDS011;6970;51.340;3.240;2023-10-31T03:25:10;1.40;;;1.20;;
13797;SDS011;6970;51.340;3.240;2023-10-31T03:27:39;2.70;;;1.40;;
13797;SDS011;6970;51.340;3.240;2023-10-31T03:30:06;1.23;;;1.13;;
13797;SDS011;6970;51.340;3.240;2023-10-31T03:32:34;2.60;;;1.30;;
13797;SDS011;6970;51.340;3.240;2023-10-31T03:35:02;1.83;;;1.30;;
13797;SDS011;6970;51.340;3.240;2023-10-31T03:37:31;2.97;;;1.80;;
13797;SDS011;6970;51.340;3.240;2023-10-31T03:40:01;2.73;;;1.60;;
13797;SDS011;6970;51.340;3.240;2023-10-31T03:42:30;1.97;;;1.40;;
13797;SDS011;6970;51.340;3.240;2023-10-31T03:44:58;3.37;;;2.00;;
13797;SDS011;6970;51.340;3.240;2023-10-31T03:47:26;3.67;;;1.90;;
13797;SDS011;6970;51.340;3.240;2023-10-31T03:49:57;1.83;;;1.47;;
13797;SDS011;6970;51.340;3.240;2023-10-31T03:52:27;2.40;;;2.03;;
13797;SDS011;6970;51.340;3.240;2023-10-31T03:54:54;1.67;;;1.47;;
13797;SDS011;6970;51.340;3.240;2023-10-31T03:57:21;3.27;;;2.00;;
13797;SDS011;6970;51.340;3.240;2023-10-31T03:59:48;2.10;;;1.70;;
13797;SDS011;6970;51.340;3.240;2023-10-31T04:02:15;2.57;;;1.90;;
13797;SDS011;6970;51.340;3.240;2023-10-31T04:04:43;2.37;;;1.50;;
13797;SDS011;6970;51.340;3.240;2023-10-31T04:07:10;2.17;;;1.83;;
13797;SDS011;6970;51.340;3.240;2023-10-31T04:09:37;3.10;;;2.23;;
13797;SDS011;6970;51.340;3.240;2023-10-31T04:12:04;3.20;;;2.20;;
13797;SDS011;6970;51.340;3.240;2023-10-31T04:14:31;4.40;;;2.20;;
13797;SDS011;6970;51.340;3.240;2023-10-31T04:16:58;2.30;;;1.90;;
13797;SDS011;6970;51.340;3.240;2023-10-31T04:19:27;2.93;;;2.13;;
13797;SDS011;6970;51.340;3.240;2023-10-31T04:24:28;2.63;;;2.43;;
13797;SDS011;6970;51.340;3.240;2023-10-31T04:27:01;2.80;;;2.20;;
13797;SDS011;6970;51.340;3.240;2023-10-31T04:29:28;4.70;;;2.50;;
13797;SDS011;6970;51.340;3.240;2023-10-31T04:34:25;4.20;;;2.70;;
13797;SDS011;6970;51.340;3.240;2023-10-31T04:36:52;3.53;;;2.73;;
13797;SDS011;6970;51.340;3.240;2023-10-31T04:39:20;6.20;;;3.03;;
13797;SDS011;6970;51.340;3.240;2023-10-31T04:41:48;4.20;;;3.20;;
13797;SDS011;6970;51.340;3.240;2023-10-31T04:44:15;3.60;;;3.30;;
13797;SDS011;6970;51.340;3.240;2023-10-31T04:46:43;6.10;;;3.47;;
13797;SDS011;6970;51.340;3.240;2023-10-31T04:49:13;3.87;;;3.47;;
13797;SDS011;6970;51.340;3.240;2023-10-31T04:51:42;4.40;;;3.73;;
13797;SDS011;6970;51.340;3.240;2023-10-31T04:54:11;5.43;;;3.60;;
13797;SDS011;6970;51.340;3.240;2023-10-31T04:56:42;5.07;;;4.13;;
13797;SDS011;6970;51.340;3.240;2023-10-31T04:59:10;5.60;;;4.10;;
13797;SDS011;6970;51.340;3.240;2023-10-31T05:01:40;4.63;;;4.00;;
13797;SDS011;6970;51.340;3.240;2023-10-31T05:06:39;9.17;;;4.40;;
13797;SDS011;6970;51.340;3.240;2023-10-31T05:09:06;5.60;;;4.27;;
13797;SDS011;6970;51.340;3.240;2023-10-31T05:11:35;5.47;;;3.80;;
13797;SDS011;6970;51.340;3.240;2023-10-31T05:16:46;4.07;;;3.67;;
13797;SDS011;6970;51.340;3.240;2023-10-31T05:21:46;6.63;;;4.77;;
13797;SDS011;6970;51.340;3.240;2023-10-31T05:26:46;6.37;;;5.77;;
13797;SDS011;6970;51.340;3.240;2023-10-31T05:29:16;6.37;;;5.77;;
13797;SDS011;6970;51.340;3.240;2023-10-31T05:31:44;7.07;;;5.83;;
13797;SDS011;6970;51.340;3.240;2023-10-31T05:34:12;6.83;;;6.07;;
13797;SDS011;6970;51.340;3.240;2023-10-31T05:36:41;6.83;;;6.00;;
13797;SDS011;6970;51.340;3.240;2023-10-31T05:39:10;7.90;;;5.80;;
13797;SDS011;6970;51.340;3.240;2023-10-31T05:44:10;6.87;;;5.47;;
13797;SDS011;6970;51.340;3.240;2023-10-31T05:46:44;7.17;;;6.40;;
13797;SDS011;6970;51.340;3.240;2023-10-31T05:51:42;7.73;;;6.60;;
13797;SDS011;6970;51.340;3.240;2023-10-31T05:54:11;8.37;;;6.40;;
13797;SDS011;6970;51.340;3.240;2023-10-31T05:56:38;8.70;;;6.83;;
13797;SDS011;6970;51.340;3.240;2023-10-31T05:59:06;10.00;;;7.03;;
13797;SDS011;6970;51.340;3.240;2023-10-31T06:01:36;8.03;;;7.23;;
13797;SDS011;6970;51.340;3.240;2023-10-31T06:04:09;7.77;;;7.00;;
13797;SDS011;6970;51.340;3.240;2023-10-31T06:06:39;9.17;;;7.87;;
13797;SDS011;6970;51.340;3.240;2023-10-31T06:09:09;8.57;;;7.67;;
13797;SDS011;6970;51.340;3.240;2023-10-31T06:11:40;7.97;;;7.27;;
13797;SDS011;6970;51.340;3.240;2023-10-31T06:14:10;10.80;;;8.20;;
13797;SDS011;6970;51.340;3.240;2023-10-31T06:16:42;9.33;;;8.37;;
13797;SDS011;6970;51.340;3.240;2023-10-31T06:19:16;10.20;;;8.53;;
13797;SDS011;6970;51.340;3.240;2023-10-31T06:21:43;9.40;;;8.50;;
13797;SDS011;6970;51.340;3.240;2023-10-31T06:24:12;9.50;;;8.70;;
13797;SDS011;6970;51.340;3.240;2023-10-31T06:29:10;8.97;;;7.80;;
13797;SDS011;6970;51.340;3.240;2023-10-31T06:34:33;10.47;;;8.33;;
13797;SDS011;6970;51.340;3.240;2023-10-31T06:37:00;11.57;;;8.90;;
13797;SDS011;6970;51.340;3.240;2023-10-31T06:39:33;11.17;;;10.23;;
13797;SDS011;6970;51.340;3.240;2023-10-31T06:42:01;12.17;;;8.47;;
13797;SDS011;6970;51.340;3.240;2023-10-31T06:44:29;10.40;;;9.40;;
13797;SDS011;6970;51.340;3.240;2023-10-31T06:46:56;10.03;;;8.73;;
13797;SDS011;6970;51.340;3.240;2023-10-31T06:49:23;10.03;;;8.93;;
13797;SDS011;6970;51.340;3.240;2023-10-31T06:51:51;9.97;;;8.80;;
13797;SDS011;6970;51.340;3.240;2023-10-31T06:54:18;9.60;;;8.37;;
13797;SDS011;6970;51.340;3.240;2023-10-31T06:56:48;12.30;;;9.53;;
13797;SDS011;6970;51.340;3.240;2023-10-31T06:59:15;11.20;;;9.33;;
13797;SDS011;6970;51.340;3.240;2023-10-31T07:06:45;9.57;;;8.63;;
13797;SDS011;6970;51.340;3.240;2023-10-31T07:09:15;9.40;;;8.60;;
13797;SDS011;6970;51.340;3.240;2023-10-31T07:11:46;9.10;;;8.30;;
13797;SDS011;6970;51.340;3.240;2023-10-31T07:14:13;9.47;;;8.67;;
13797;SDS011;6970;51.340;3.240;2023-10-31T07:19:13;8.67;;;7.90;;
13797;SDS011;6970;51.340;3.240;2023-10-31T07:21:40;7.33;;;6.83;;
13797;SDS011;6970;51.340;3.240;2023-10-31T07:24:14;8.70;;;7.77;;
13797;SDS011;6970;51.340;3.240;2023-10-31T07:26:44;7.77;;;7.07;;
13797;SDS011;6970;51.340;3.240;2023-10-31T07:29:12;8.20;;;7.60;;
13797;SDS011;6970;51.340;3.240;2023-10-31T07:31:42;7.57;;;6.97;;
13797;SDS011;6970;51.340;3.240;2023-10-31T07:39:10;8.47;;;7.87;;
13797;SDS011;6970;51.340;3.240;2023-10-31T07:41:39;7.43;;;6.87;;
13797;SDS011;6970;51.340;3.240;2023-10-31T07:44:07;9.13;;;8.33;;
13797;SDS011;6970;51.340;3.240;2023-10-31T07:46:36;11.23;;;8.20;;
13797;SDS011;6970;51.340;3.240;2023-10-31T07:49:03;9.80;;;8.80;;
13797;SDS011;6970;51.340;3.240;2023-10-31T07:51:31;12.57;;;9.50;;
13797;SDS011;6970;51.340;3.240;2023-10-31T07:54:00;10.80;;;9.50;;
13797;SDS011;6970;51.340;3.240;2023-10-31T07:56:30;12.97;;;10.20;;
13797;SDS011;6970;51.340;3.240;2023-10-31T07:59:01;53.23;;;10.47;;
13797;SDS011;6970;51.340;3.240;2023-10-31T08:01:29;32.07;;;9.67;;
13797;SDS011;6970;51.340;3.240;2023-10-31T08:03:59;25.90;;;9.47;;
13797;SDS011;6970;51.340;3.240;2023-10-31T08:06:27;34.53;;;10.23;;
13797;SDS011;6970;51.340;3.240;2023-10-31T08:11:24;22.23;;;9.87;;
13797;SDS011;6970;51.340;3.240;2023-10-31T08:13:52;19.60;;;10.13;;
13797;SDS011;6970;51.340;3.240;2023-10-31T08:18:53;12.13;;;10.90;;
13797;SDS011;6970;51.340;3.240;2023-10-31T08:21:23;27.70;;;11.27;;
13797;SDS011;6970;51.340;3.240;2023-10-31T08:23:52;17.43;;;12.00;;
13797;SDS011;6970;51.340;3.240;2023-10-31T08:26:19;20.00;;;12.47;;
13797;SDS011;6970;51.340;3.240;2023-10-31T08:28:47;33.87;;;13.17;;
13797;SDS011;6970;51.340;3.240;2023-10-31T08:31:16;16.60;;;11.43;;
13797;SDS011;6970;51.340;3.240;2023-10-31T08:33:46;18.33;;;11.87;;
13797;SDS011;6970;51.340;3.240;2023-10-31T08:36:13;18.07;;;12.57;;
13797;SDS011;6970;51.340;3.240;2023-10-31T08:38:40;12.07;;;11.00;;
13797;SDS011;6970;51.340;3.240;2023-10-31T08:41:09;16.70;;;12.37;;
13797;SDS011;6970;51.340;3.240;2023-10-31T08:43:38;12.60;;;11.20;;
13797;SDS011;6970;51.340;3.240;2023-10-31T08:46:05;13.63;;;12.27;;
13797;SDS011;6970;51.340;3.240;2023-10-31T08:48:33;14.87;;;12.70;;
13797;SDS011;6970;51.340;3.240;2023-10-31T08:51:00;13.93;;;12.33;;
13797;SDS011;6970;51.340;3.240;2023-10-31T08:53:27;17.07;;;13.57;;
13797;SDS011;6970;51.340;3.240;2023-10-31T08:55:56;13.40;;;12.00;;
13797;SDS011;6970;51.340;3.240;2023-10-31T08:58:24;16.80;;;13.60;;
13797;SDS011;6970;51.340;3.240;2023-10-31T09:00:52;14.33;;;12.47;;
13797;SDS011;6970;51.340;3.240;2023-10-31T09:05:50;18.10;;;13.87;;
13797;SDS011;6970;51.340;3.240;2023-10-31T09:08:20;15.73;;;14.10;;
13797;SDS011;6970;51.340;3.240;2023-10-31T09:13:19;18.00;;;14.80;;
13797;SDS011;6970;51.340;3.240;2023-10-31T09:18:16;14.50;;;13.07;;
13797;SDS011;6970;51.340;3.240;2023-10-31T09:20:47;13.23;;;11.77;;
13797;SDS011;6970;51.340;3.240;2023-10-31T09:23:20;12.30;;;11.30;;
13797;SDS011;6970;51.340;3.240;2023-10-31T09:28:17;12.03;;;11.03;;
13797;SDS011;6970;51.340;3.240;2023-10-31T09:30:46;11.50;;;10.40;;
13797;SDS011;6970;51.340;3.240;2023-10-31T09:33:16;11.87;;;10.77;;
13797;SDS011;6970;51.340;3.240;2023-10-31T09:35:45;12.03;;;11.10;;
13797;SDS011;6970;51.340;3.240;2023-10-31T09:38:24;13.10;;;12.03;;
13797;SDS011;6970;51.340;3.240;2023-10-31T09:43:21;13.73;;;12.30;;
13797;SDS011;6970;51.340;3.240;2023-10-31T09:45:50;13.10;;;11.90;;
13797;SDS011;6970;51.340;3.240;2023-10-31T09:50:49;13.90;;;12.57;;
13797;SDS011;6970;51.340;3.240;2023-10-31T09:53:19;13.47;;;12.07;;
13797;SDS011;6970;51.340;3.240;2023-10-31T09:55:47;13.97;;;12.53;;
13797;SDS011;6970;51.340;3.240;2023-10-31T09:58:17;13.30;;;12.13;;
13797;SDS011;6970;51.340;3.240;2023-10-31T10:03:17;12.73;;;11.53;;
13797;SDS011;6970;51.340;3.240;2023-10-31T10:05:45;12.00;;;11.07;;
13797;SDS011;6970;51.340;3.240;2023-10-31T10:08:14;12.57;;;11.37;;
13797;SDS011;6970;51.340;3.240;2023-10-31T10:10:41;11.13;;;10.03;;
13797;SDS011;6970;51.340;3.240;2023-10-31T10:13:11;11.93;;;10.67;;
13797;SDS011;6970;51.340;3.240;2023-10-31T10:15:45;12.33;;;11.00;;
13797;SDS011;6970;51.340;3.240;2023-10-31T10:18:28;11.90;;;10.70;;
13797;SDS011;6970;51.340;3.240;2023-10-31T10:20:57;12.37;;;11.17;;
13797;SDS011;6970;51.340;3.240;2023-10-31T10:23:26;12.13;;;11.03;;
13797;SDS011;6970;51.340;3.240;2023-10-31T10:25:54;11.37;;;10.17;;
13797;SDS011;6970;51.340;3.240;2023-10-31T10:28:24;11.37;;;10.37;;
13797;SDS011;6970;51.340;3.240;2023-10-31T10:30:53;10.57;;;9.67;;
13797;SDS011;6970;51.340;3.240;2023-10-31T10:33:21;11.77;;;8.93;;
13797;SDS011;6970;51.340;3.240;2023-10-31T10:35:48;9.57;;;8.67;;
13797;SDS011;6970;51.340;3.240;2023-10-31T10:38:17;11.00;;;9.33;;
13797;SDS011;6970;51.340;3.240;2023-10-31T10:40:46;9.77;;;8.87;;
13797;SDS011;6970;51.340;3.240;2023-10-31T10:43:22;9.53;;;8.70;;
13797;SDS011;6970;51.340;3.240;2023-10-31T10:45:57;9.63;;;8.67;;
13797;SDS011;6970;51.340;3.240;2023-10-31T10:51:07;11.17;;;10.30;;
13797;SDS011;6970;51.340;3.240;2023-10-31T10:53:59;12.27;;;9.93;;
13797;SDS011;6970;51.340;3.240;2023-10-31T10:56:37;11.00;;;10.00;;
13797;SDS011;6970;51.340;3.240;2023-10-31T10:59:13;10.40;;;9.50;;
13797;SDS011;6970;51.340;3.240;2023-10-31T11:01:44;10.17;;;9.23;;
13797;SDS011;6970;51.340;3.240;2023-10-31T11:04:13;10.37;;;9.47;;
13797;SDS011;6970;51.340;3.240;2023-10-31T11:06:42;11.13;;;9.40;;
13797;SDS011;6970;51.340;3.240;2023-10-31T11:09:11;10.07;;;9.27;;
13797;SDS011;6970;51.340;3.240;2023-10-31T11:11:40;10.40;;;9.47;;
13797;SDS011;6970;51.340;3.240;2023-10-31T11:14:11;10.37;;;8.63;;
13797;SDS011;6970;51.340;3.240;2023-10-31T11:16:39;9.10;;;8.20;;
13797;SDS011;6970;51.340;3.240;2023-10-31T11:19:11;8.67;;;7.67;;
13797;SDS011;6970;51.340;3.240;2023-10-31T11:26:52;9.30;;;8.37;;
13797;SDS011;6970;51.340;3.240;2023-10-31T11:29:27;10.23;;;7.67;;
13797;SDS011;6970;51.340;3.240;2023-10-31T11:31:55;10.07;;;9.17;;
13797;SDS011;6970;51.340;3.240;2023-10-31T11:42:53;9.50;;;8.70;;
13797;SDS011;6970;51.340;3.240;2023-10-31T11:45:35;11.37;;;10.23;;
13797;SDS011;6970;51.340;3.240;2023-10-31T11:48:10;10.57;;;9.47;;
13797;SDS011;6970;51.340;3.240;2023-10-31T11:53:08;12.00;;;10.90;;
13797;SDS011;6970;51.340;3.240;2023-10-31T11:55:43;11.93;;;10.83;;
13797;SDS011;6970;51.340;3.240;2023-10-31T11:58:23;10.93;;;9.93;;
13797;SDS011;6970;51.340;3.240;2023-10-31T12:01:01;12.63;;;10.83;;
13797;SDS011;6970;51.340;3.240;2023-10-31T12:03:42;13.50;;;11.17;;
13797;SDS011;6970;51.340;3.240;2023-10-31T12:06:15;11.90;;;10.60;;
13797;SDS011;6970;51.340;3.240;2023-10-31T12:08:47;14.63;;;11.37;;
13797;SDS011;6970;51.340;3.240;2023-10-31T12:11:18;12.13;;;10.90;;
13797;SDS011;6970;51.340;3.240;2023-10-31T12:13:58;10.57;;;9.70;;
13797;SDS011;6970;51.340;3.240;2023-10-31T12:16:33;11.43;;;10.20;;
13797;SDS011;6970;51.340;3.240;2023-10-31T12:19:05;11.80;;;10.60;;
13797;SDS011;6970;51.340;3.240;2023-10-31T12:21:45;14.63;;;10.00;;
13797;SDS011;6970;51.340;3.240;2023-10-31T12:24:15;11.97;;;10.27;;
13797;SDS011;6970;51.340;3.240;2023-10-31T12:26:43;11.53;;;10.13;;
13797;SDS011;6970;51.340;3.240;2023-10-31T12:29:18;11.73;;;9.27;;
13797;SDS011;6970;51.340;3.240;2023-10-31T12:31:50;10.40;;;9.40;;
13797;SDS011;6970;51.340;3.240;2023-10-31T12:34:24;9.93;;;8.90;;
13797;SDS011;6970;51.340;3.240;2023-10-31T12:36:54;10.30;;;9.30;;
13797;SDS011;6970;51.340;3.240;2023-10-31T12:39:26;10.27;;;9.27;;
13797;SDS011;6970;51.340;3.240;2023-10-31T12:41:57;9.40;;;8.50;;
13797;SDS011;6970;51.340;3.240;2023-10-31T12:44:28;8.83;;;8.03;;
13797;SDS011;6970;51.340;3.240;2023-10-31T12:49:29;7.67;;;6.80;;
13797;SDS011;6970;51.340;3.240;2023-10-31T12:52:01;7.73;;;7.03;;
13797;SDS011;6970;51.340;3.240;2023-10-31T12:54:33;6.70;;;6.20;;
13797;SDS011;6970;51.340;3.240;2023-10-31T12:59:38;6.37;;;5.77;;
13797;SDS011;6970;51.340;3.240;2023-10-31T13:02:08;5.77;;;5.37;;
13797;SDS011;6970;51.340;3.240;2023-10-31T13:07:10;6.63;;;6.13;;
13797;SDS011;6970;51.340;3.240;2023-10-31T13:09:38;6.10;;;5.67;;
13797;SDS011;6970;51.340;3.240;2023-10-31T13:12:08;6.43;;;5.80;;
13797;SDS011;6970;51.340;3.240;2023-10-31T13:14:40;5.50;;;5.10;;
13797;SDS011;6970;51.340;3.240;2023-10-31T13:17:15;5.17;;;4.67;;
13797;SDS011;6970;51.340;3.240;2023-10-31T13:19:44;4.57;;;4.27;;
13797;SDS011;6970;51.340;3.240;2023-10-31T13:22:14;4.93;;;4.60;;
13797;SDS011;6970;51.340;3.240;2023-10-31T13:24:41;5.13;;;4.43;;
13797;SDS011;6970;51.340;3.240;2023-10-31T13:27:11;4.83;;;4.33;;
13797;SDS011;6970;51.340;3.240;2023-10-31T13:29:45;4.47;;;4.17;;
13797;SDS011;6970;51.340;3.240;2023-10-31T13:32:16;4.57;;;4.27;;
13797;SDS011;6970;51.340;3.240;2023-10-31T13:34:44;4.90;;;4.50;;
13797;SDS011;6970;51.340;3.240;2023-10-31T13:37:11;4.40;;;4.10;;
13797;SDS011;6970;51.340;3.240;2023-10-31T13:39:39;5.00;;;4.60;;
13797;SDS011;6970;51.340;3.240;2023-10-31T13:42:06;4.57;;;4.17;;
13797;SDS011;6970;51.340;3.240;2023-10-31T13:44:33;4.17;;;3.87;;
13797;SDS011;6970;51.340;3.240;2023-10-31T13:47:00;5.13;;;3.63;;
13797;SDS011;6970;51.340;3.240;2023-10-31T13:49:29;4.43;;;3.50;;
13797;SDS011;6970;51.340;3.240;2023-10-31T13:51:58;3.90;;;3.50;;
13797;SDS011;6970;51.340;3.240;2023-10-31T13:54:27;3.67;;;3.37;;
13797;SDS011;6970;51.340;3.240;2023-10-31T13:56:54;3.17;;;2.97;;
13797;SDS011;6970;51.340;3.240;2023-10-31T13:59:21;3.43;;;3.23;;
13797;SDS011;6970;51.340;3.240;2023-10-31T14:01:49;4.37;;;3.23;;
13797;SDS011;6970;51.340;3.240;2023-10-31T14:06:47;3.40;;;3.10;;
13797;SDS011;6970;51.340;3.240;2023-10-31T14:11:44;3.30;;;3.03;;
13797;SDS011;6970;51.340;3.240;2023-10-31T14:14:13;3.53;;;3.00;;
13797;SDS011;6970;51.340;3.240;2023-10-31T14:16:43;2.80;;;2.60;;
13797;SDS011;6970;51.340;3.240;2023-10-31T14:19:12;2.60;;;2.40;;
13797;SDS011;6970;51.340;3.240;2023-10-31T14:24:12;3.67;;;3.17;;
13797;SDS011;6970;51.340;3.240;2023-10-31T14:29:12;5.77;;;3.33;;
13797;SDS011;6970;51.340;3.240;2023-10-31T14:31:41;2.50;;;2.30;;
13797;SDS011;6970;51.340;3.240;2023-10-31T14:36:39;4.27;;;3.17;;
13797;SDS011;6970;51.340;3.240;2023-10-31T14:39:06;3.50;;;3.10;;
13797;SDS011;6970;51.340;3.240;2023-10-31T14:41:37;3.47;;;3.17;;
13797;SDS011;6970;51.340;3.240;2023-10-31T14:44:04;3.87;;;3.47;;
13797;SDS011;6970;51.340;3.240;2023-10-31T14:46:32;3.73;;;3.23;;
13797;SDS011;6970;51.340;3.240;2023-10-31T14:49:00;4.00;;;3.10;;
13797;SDS011;6970;51.340;3.240;2023-10-31T14:51:29;4.03;;;3.60;;
13797;SDS011;6970;51.340;3.240;2023-10-31T14:53:59;4.30;;;3.30;;
13797;SDS011;6970;51.340;3.240;2023-10-31T14:56:29;4.03;;;3.00;;
13797;SDS011;6970;51.340;3.240;2023-10-31T15:01:28;4.20;;;3.80;;
13797;SDS011;6970;51.340;3.240;2023-10-31T15:06:26;3.47;;;3.17;;
13797;SDS011;6970;51.340;3.240;2023-10-31T15:08:53;5.93;;;3.53;;
13797;SDS011;6970;51.340;3.240;2023-10-31T15:11:34;4.00;;;3.40;;
13797;SDS011;6970;51.340;3.240;2023-10-31T15:14:02;5.40;;;3.37;;
13797;SDS011;6970;51.340;3.240;2023-10-31T15:16:32;5.67;;;3.50;;
13797;SDS011;6970;51.340;3.240;2023-10-31T15:19:00;5.20;;;3.40;;
13797;SDS011;6970;51.340;3.240;2023-10-31T15:21:30;5.43;;;3.30;;
13797;SDS011;6970;51.340;3.240;2023-10-31T15:26:29;4.77;;;3.57;;
13797;SDS011;6970;51.340;3.240;2023-10-31T15:28:56;5.93;;;3.13;;
13797;SDS011;6970;51.340;3.240;2023-10-31T15:31:23;6.83;;;3.40;;
13797;SDS011;6970;51.340;3.240;2023-10-31T15:36:20;4.30;;;3.57;;
13797;SDS011;6970;51.340;3.240;2023-10-31T15:38:47;3.77;;;3.37;;
13797;SDS011;6970;51.340;3.240;2023-10-31T15:41:16;3.67;;;3.03;;
13797;SDS011;6970;51.340;3.240;2023-10-31T15:43:44;7.07;;;3.67;;
13797;SDS011;6970;51.340;3.240;2023-10-31T15:46:13;7.70;;;3.97;;
13797;SDS011;6970;51.340;3.240;2023-10-31T15:48:46;6.43;;;3.70;;
13797;SDS011;6970;51.340;3.240;2023-10-31T15:51:17;6.10;;;3.60;;
13797;SDS011;6970;51.340;3.240;2023-10-31T15:53:47;5.73;;;4.13;;
13797;SDS011;6970;51.340;3.240;2023-10-31T15:56:14;4.83;;;3.77;;
13797;SDS011;6970;51.340;3.240;2023-10-31T15:58:41;5.23;;;3.63;;
13797;SDS011;6970;51.340;3.240;2023-10-31T16:01:10;9.83;;;3.50;;
13797;SDS011;6970;51.340;3.240;2023-10-31T16:03:39;8.37;;;4.10;;
13797;SDS011;6970;51.340;3.240;2023-10-31T16:06:07;5.27;;;3.83;;
13797;SDS011;6970;51.340;3.240;2023-10-31T16:08:36;5.30;;;4.23;;
13797;SDS011;6970;51.340;3.240;2023-10-31T16:13:38;5.03;;;3.90;;
13797;SDS011;6970;51.340;3.240;2023-10-31T16:16:10;6.00;;;4.00;;
13797;SDS011;6970;51.340;3.240;2023-10-31T16:23:50;7.77;;;3.93;;
13797;SDS011;6970;51.340;3.240;2023-10-31T16:26:18;5.00;;;3.40;;
13797;SDS011;6970;51.340;3.240;2023-10-31T16:28:47;4.30;;;2.50;;
13797;SDS011;6970;51.340;3.240;2023-10-31T16:31:19;4.57;;;2.37;;
13797;SDS011;6970;51.340;3.240;2023-10-31T16:33:47;4.63;;;2.03;;
13797;SDS011;6970;51.340;3.240;2023-10-31T16:36:14;6.47;;;1.90;;
13797;SDS011;6970;51.340;3.240;2023-10-31T16:38:43;6.90;;;2.53;;
13797;SDS011;6970;51.340;3.240;2023-10-31T16:41:10;7.23;;;2.23;;
13797;SDS011;6970;51.340;3.240;2023-10-31T16:43:40;4.27;;;1.60;;
13797;SDS011;6970;51.340;3.240;2023-10-31T16:46:09;4.80;;;2.07;;
13797;SDS011;6970;51.340;3.240;2023-10-31T16:48:42;5.50;;;1.97;;
13797;SDS011;6970;51.340;3.240;2023-10-31T16:53:49;4.17;;;2.40;;
13797;SDS011;6970;51.340;3.240;2023-10-31T16:56:19;7.17;;;2.50;;
13797;SDS011;6970;51.340;3.240;2023-10-31T16:58:51;7.57;;;1.90;;
13797;SDS011;6970;51.340;3.240;2023-10-31T17:01:19;5.43;;;2.67;;
13797;SDS011;6970;51.340;3.240;2023-10-31T17:06:16;5.30;;;2.63;;
13797;SDS011;6970;51.340;3.240;2023-10-31T17:08:48;5.13;;;2.53;;
13797;SDS011;6970;51.340;3.240;2023-10-31T17:13:47;8.53;;;2.13;;
13797;SDS011;6970;51.340;3.240;2023-10-31T17:16:14;7.30;;;2.10;;
13797;SDS011;6970;51.340;3.240;2023-10-31T17:18:45;12.00;;;2.53;;
13797;SDS011;6970;51.340;3.240;2023-10-31T17:21:13;7.77;;;2.77;;
13797;SDS011;6970;51.340;3.240;2023-10-31T17:23:40;6.13;;;2.37;;
13797;SDS011;6970;51.340;3.240;2023-10-31T17:26:10;6.30;;;2.67;;
13797;SDS011;6970;51.340;3.240;2023-10-31T17:28:38;7.40;;;2.17;;
13797;SDS011;6970;51.340;3.240;2023-10-31T17:31:09;3.33;;;1.77;;
13797;SDS011;6970;51.340;3.240;2023-10-31T17:33:38;5.20;;;1.93;;
13797;SDS011;6970;51.340;3.240;2023-10-31T17:36:13;4.03;;;2.07;;
13797;SDS011;6970;51.340;3.240;2023-10-31T17:38:42;10.60;;;3.10;;
13797;SDS011;6970;51.340;3.240;2023-10-31T17:41:11;8.53;;;3.27;;